• Join FlightAware (Why Join?)
  • Login
  • US Flag 
01:57AM EDT


 

Airport Tracker/Info


-or-


 

Live Flight TrackerFlight Track Log ✈ LBQ792 ✈ 10-May-2013 ✈ KAGC - KIAD

Flight Track Log - Related Links

Times and Time Zones

All times are in EDT time to prevent confusion due to time zone crossing. See the LBQ792 flight status page for this flight to view local times or setup timezone preferences in your user account.

Time Position Orientation Groundspeed Altitude Reporting Facility
EDT Latitude Longitude Course Direction KTS MPH feet Rate Location/Type
12:56AM 40.3217 -79.9214 122° Southeast 190 219 3,500  Level Cleveland Center
12:57AM 40.2942 -79.8644 122° Southeast 195 224 5,100 1,440 Climbing Cleveland Center
12:58AM 40.2667 -79.7994 119° Southeast 205 236 6,500 1,380 Climbing Cleveland Center
12:59AM 40.2350 -79.7428 126° Southeast 210 242 7,900 1,320 Climbing Cleveland Center
01:00AM 40.2011 -79.6781 124° Southeast 205 236 9,200 1,260 Climbing Cleveland Center
01:01AM 40.1672 -79.6186 127° Southeast 205 236 10,500 1,200 Climbing Cleveland Center
01:02AM 40.1333 -79.5539 124° Southeast 210 242 11,600 1,020 Climbing Cleveland Center
01:03AM 40.0994 -79.4919 126° Southeast 210 242 12,600 1,080 Climbing Cleveland Center
01:04AM 40.0633 -79.4247 125° Southeast 215 247 13,800 1,140 Climbing Cleveland Center
01:05AM 40.0272 -79.3575 125° Southeast 215 247 14,900 600 Climbing Cleveland Center
01:06AM 39.9847 -79.2881 129° Southeast 227 261 15,000  Climbing Cleveland Center
01:07AM 39.9400 -79.2103 127° Southeast 245 282 15,000 -60 Level Cleveland Center
01:09AM 39.8375 -79.0314 127° Southeast 277 319 14,900 -60 Descending Washington Center
01:10AM 39.7919 -78.9481 125° Southeast 283 326 14,900  Level Washington Center
01:11AM 39.7464 -78.8678 126° Southeast 294 338 15,000  Climbing Washington Center
01:12AM 39.6986 -78.7847 127° Southeast 294 338 14,900 -60 Descending Washington Center
01:13AM 39.6528 -78.7019 126° Southeast 289 333 14,900  Level Washington Center
01:14AM 39.6047 -78.6189 127° Southeast 289 333 15,000 60 Climbing Washington Center
01:15AM 39.5611 -78.5364 124° Southeast 289 333 15,100 -540 Climbing Washington Center
01:16AM 39.5089 -78.4508 128° Southeast 289 333 14,000 -1,080 Descending Washington Center
01:17AM 39.4589 -78.3656 127° Southeast 284 327 13,000 -1,080 Descending Washington Center
01:18AM 39.4108 -78.2806 126° Southeast 284 327 11,900 -1,140 Descending Washington Center
01:19AM 39.3625 -78.1953 126° Southeast 284 327 10,800 -1,200 Descending Washington Center
01:20AM 39.3144 -78.1053 125° Southeast 296 341 9,600 -1,200 Descending Washington Center
01:21AM 39.2703 -78.0178 123° Southeast 296 341 8,500 -840 Descending Washington Center
01:22AM 39.2242 -77.9333 125° Southeast 296 341 8,000 -300 Descending Washington Center
01:23AM 39.1797 -77.8542 126° Southeast 289 333 8,000 -360 Level Washington Center
01:24AM 39.1267 -77.7911 137° Southeast 269 310 7,400 -900 Descending Washington Center
01:25AM 39.0756 -77.7439 144° Southeast 257 296 6,300 -1,140 Descending Washington Center
01:26AM 39.0097 -77.6861 146° Southeast 262 302 5,100 -1,140 Descending Washington Center
01:28AM 38.9667 -77.5833 118° Southeast 258 297 3,600 -1,260 Descending Potomac TRACON
01:29AM 38.9500 -77.5167 108° East 199 229 2,200 -1,440 Descending Potomac TRACON
01:31AM 38.9474 -77.4599 134° Southeast  Level Estimated
01:38AM 38.9474 -77.4599 134° Southeast  Level Estimated
01:39AM 38.9474 -77.4599 134° Southeast  Level Estimated
01:40AM 38.9474 -77.4599 134° Southeast  Level Estimated
01:41AM 38.9474 -77.4599 134° Southeast  Level Estimated
01:42AM 38.9474 -77.4599 134° Southeast  Level Estimated
01:43AM 38.9474 -77.4599 134° Southeast  Level Estimated
01:44AM 38.9474 -77.4599 134° Southeast  Level Estimated
01:45AM 38.9474 -77.4599 134° Southeast  Level Estimated